sensor_id;sensor_type;location;lat;lon;timestamp;pressure;altitude;pressure_sealevel;temperature;humidity
26807;BME280;14380;49.910;6.792;2023-05-07T00:01:18;98754.66;;;13.72;100.00
26807;BME280;14380;49.910;6.792;2023-05-07T00:03:45;98751.06;;;13.73;100.00
26807;BME280;14380;49.910;6.792;2023-05-07T00:06:12;98759.34;;;13.68;100.00
26807;BME280;14380;49.910;6.792;2023-05-07T00:08:39;98748.53;;;13.72;100.00
26807;BME280;14380;49.910;6.792;2023-05-07T00:11:07;98759.00;;;13.73;100.00
26807;BME280;14380;49.910;6.792;2023-05-07T00:13:34;98754.97;;;13.67;100.00
26807;BME280;14380;49.910;6.792;2023-05-07T00:16:01;98754.03;;;13.68;100.00
26807;BME280;14380;49.910;6.792;2023-05-07T00:18:28;98761.03;;;13.57;100.00
26807;BME280;14380;49.910;6.792;2023-05-07T00:20:54;98762.28;;;13.51;100.00
26807;BME280;14380;49.910;6.792;2023-05-07T00:23:21;98766.91;;;13.34;100.00
26807;BME280;14380;49.910;6.792;2023-05-07T00:25:48;98771.41;;;13.19;100.00
26807;BME280;14380;49.910;6.792;2023-05-07T00:28:16;98758.53;;;13.00;100.00
26807;BME280;14380;49.910;6.792;2023-05-07T00:30:43;98758.56;;;13.13;100.00
26807;BME280;14380;49.910;6.792;2023-05-07T00:33:10;98757.34;;;13.04;100.00
26807;BME280;14380;49.910;6.792;2023-05-07T00:35:36;98755.22;;;12.97;100.00
26807;BME280;14380;49.910;6.792;2023-05-07T00:38:03;98753.06;;;13.16;100.00
26807;BME280;14380;49.910;6.792;2023-05-07T00:40:30;98743.28;;;13.17;100.00
26807;BME280;14380;49.910;6.792;2023-05-07T00:42:57;98748.38;;;13.07;100.00
26807;BME280;14380;49.910;6.792;2023-05-07T00:45:27;98738.09;;;13.15;100.00
26807;BME280;14380;49.910;6.792;2023-05-07T00:47:55;98739.91;;;12.87;100.00
26807;BME280;14380;49.910;6.792;2023-05-07T00:50:21;98734.97;;;12.96;100.00
26807;BME280;14380;49.910;6.792;2023-05-07T00:52:48;98735.09;;;13.07;100.00
26807;BME280;14380;49.910;6.792;2023-05-07T00:55:15;98727.13;;;12.67;100.00
26807;BME280;14380;49.910;6.792;2023-05-07T00:57:42;98733.72;;;12.74;100.00
26807;BME280;14380;49.910;6.792;2023-05-07T01:00:10;98735.06;;;12.67;100.00
26807;BME280;14380;49.910;6.792;2023-05-07T01:02:39;98742.75;;;12.84;100.00
26807;BME280;14380;49.910;6.792;2023-05-07T01:05:07;98739.69;;;12.63;100.00
26807;BME280;14380;49.910;6.792;2023-05-07T01:07:35;98744.28;;;12.46;100.00
26807;BME280;14380;49.910;6.792;2023-05-07T01:10:04;98740.38;;;12.52;100.00
26807;BME280;14380;49.910;6.792;2023-05-07T01:12:32;98739.75;;;12.34;100.00
26807;BME280;14380;49.910;6.792;2023-05-07T01:14:59;98741.09;;;12.27;100.00
26807;BME280;14380;49.910;6.792;2023-05-07T01:17:27;98731.28;;;12.00;100.00
26807;BME280;14380;49.910;6.792;2023-05-07T01:19:55;98732.13;;;12.29;100.00
26807;BME280;14380;49.910;6.792;2023-05-07T01:22:30;98733.69;;;12.46;100.00
26807;BME280;14380;49.910;6.792;2023-05-07T01:24:57;98739.06;;;12.45;100.00
26807;BME280;14380;49.910;6.792;2023-05-07T01:27:24;98736.59;;;12.56;100.00
26807;BME280;14380;49.910;6.792;2023-05-07T01:29:51;98736.16;;;12.20;100.00
26807;BME280;14380;49.910;6.792;2023-05-07T01:32:19;98731.94;;;12.18;100.00
26807;BME280;14380;49.910;6.792;2023-05-07T01:34:50;98739.88;;;12.32;100.00
26807;BME280;14380;49.910;6.792;2023-05-07T01:37:17;98729.47;;;12.15;100.00
26807;BME280;14380;49.910;6.792;2023-05-07T01:39:45;98730.03;;;12.05;100.00
26807;BME280;14380;49.910;6.792;2023-05-07T01:42:12;98729.41;;;12.02;100.00
26807;BME280;14380;49.910;6.792;2023-05-07T01:44:39;98734.38;;;12.07;100.00
26807;BME280;14380;49.910;6.792;2023-05-07T01:47:06;98739.16;;;11.85;100.00
26807;BME280;14380;49.910;6.792;2023-05-07T01:49:32;98730.47;;;11.83;100.00
26807;BME280;14380;49.910;6.792;2023-05-07T01:51:59;98738.81;;;11.92;100.00
26807;BME280;14380;49.910;6.792;2023-05-07T01:54:26;98727.84;;;11.69;100.00
26807;BME280;14380;49.910;6.792;2023-05-07T01:56:56;98727.91;;;11.96;100.00
26807;BME280;14380;49.910;6.792;2023-05-07T01:59:23;98729.16;;;11.90;100.00
26807;BME280;14380;49.910;6.792;2023-05-07T02:01:50;98724.25;;;11.84;100.00
26807;BME280;14380;49.910;6.792;2023-05-07T02:04:17;98726.16;;;11.97;100.00
26807;BME280;14380;49.910;6.792;2023-05-07T02:06:43;98722.06;;;11.77;100.00
26807;BME280;14380;49.910;6.792;2023-05-07T02:09:10;98731.03;;;11.59;100.00
26807;BME280;14380;49.910;6.792;2023-05-07T02:11:37;98730.78;;;11.79;100.00
26807;BME280;14380;49.910;6.792;2023-05-07T02:14:05;98732.16;;;11.55;100.00
26807;BME280;14380;49.910;6.792;2023-05-07T02:16:31;98722.66;;;11.82;100.00
26807;BME280;14380;49.910;6.792;2023-05-07T02:18:58;98736.88;;;11.50;100.00
26807;BME280;14380;49.910;6.792;2023-05-07T02:21:25;98727.91;;;11.67;100.00
26807;BME280;14380;49.910;6.792;2023-05-07T02:23:52;98731.59;;;11.65;100.00
26807;BME280;14380;49.910;6.792;2023-05-07T02:26:18;98732.91;;;11.72;100.00
26807;BME280;14380;49.910;6.792;2023-05-07T02:28:46;98741.25;;;11.80;100.00
26807;BME280;14380;49.910;6.792;2023-05-07T02:31:15;98738.59;;;11.80;100.00
26807;BME280;14380;49.910;6.792;2023-05-07T02:33:41;98739.16;;;11.71;100.00
26807;BME280;14380;49.910;6.792;2023-05-07T02:36:09;98739.66;;;11.78;100.00
26807;BME280;14380;49.910;6.792;2023-05-07T02:38:36;98739.44;;;11.66;100.00
26807;BME280;14380;49.910;6.792;2023-05-07T02:41:04;98732.47;;;11.80;100.00
26807;BME280;14380;49.910;6.792;2023-05-07T02:43:31;98737.47;;;11.84;100.00
26807;BME280;14380;49.910;6.792;2023-05-07T02:46:01;98735.00;;;11.81;100.00
26807;BME280;14380;49.910;6.792;2023-05-07T02:48:30;98731.50;;;11.95;100.00
26807;BME280;14380;49.910;6.792;2023-05-07T02:50:57;98726.69;;;11.87;100.00
26807;BME280;14380;49.910;6.792;2023-05-07T02:53:24;98729.34;;;11.87;100.00
26807;BME280;14380;49.910;6.792;2023-05-07T02:55:52;98731.97;;;11.73;100.00
26807;BME280;14380;49.910;6.792;2023-05-07T02:58:19;98741.06;;;11.69;100.00
26807;BME280;14380;49.910;6.792;2023-05-07T03:00:46;98731.34;;;11.24;100.00
26807;BME280;14380;49.910;6.792;2023-05-07T03:03:12;98732.19;;;11.25;100.00
26807;BME280;14380;49.910;6.792;2023-05-07T03:05:41;98735.69;;;11.25;100.00
26807;BME280;14380;49.910;6.792;2023-05-07T03:11:27;98728.16;;;11.48;100.00
26807;BME280;14380;49.910;6.792;2023-05-07T03:13:57;98731.00;;;11.45;100.00
26807;BME280;14380;49.910;6.792;2023-05-07T03:16:23;98730.22;;;11.43;100.00
26807;BME280;14380;49.910;6.792;2023-05-07T03:18:50;98728.28;;;11.47;100.00
26807;BME280;14380;49.910;6.792;2023-05-07T03:21:18;98731.69;;;11.18;100.00
26807;BME280;14380;49.910;6.792;2023-05-07T03:23:45;98735.44;;;11.44;100.00
26807;BME280;14380;49.910;6.792;2023-05-07T03:26:11;98738.69;;;11.34;100.00
26807;BME280;14380;49.910;6.792;2023-05-07T03:28:38;98729.31;;;11.13;100.00
26807;BME280;14380;49.910;6.792;2023-05-07T03:31:05;98724.41;;;11.22;100.00
26807;BME280;14380;49.910;6.792;2023-05-07T03:33:33;98737.19;;;11.29;100.00
26807;BME280;14380;49.910;6.792;2023-05-07T03:36:00;98731.34;;;11.39;100.00
26807;BME280;14380;49.910;6.792;2023-05-07T03:38:28;98734.09;;;11.37;100.00
26807;BME280;14380;49.910;6.792;2023-05-07T03:40:55;98732.47;;;11.35;100.00
26807;BME280;14380;49.910;6.792;2023-05-07T03:43:22;98731.22;;;11.26;100.00
26807;BME280;14380;49.910;6.792;2023-05-07T03:45:48;98728.72;;;11.39;100.00
26807;BME280;14380;49.910;6.792;2023-05-07T03:48:15;98729.44;;;11.26;100.00
26807;BME280;14380;49.910;6.792;2023-05-07T03:50:42;98734.81;;;11.25;100.00
26807;BME280;14380;49.910;6.792;2023-05-07T03:53:08;98736.06;;;11.34;100.00
26807;BME280;14380;49.910;6.792;2023-05-07T03:55:36;98730.88;;;11.32;100.00
26807;BME280;14380;49.910;6.792;2023-05-07T03:58:03;98726.41;;;11.18;100.00
26807;BME280;14380;49.910;6.792;2023-05-07T04:00:30;98728.47;;;11.13;100.00
26807;BME280;14380;49.910;6.792;2023-05-07T04:02:58;98734.34;;;11.18;100.00
26807;BME280;14380;49.910;6.792;2023-05-07T04:05:25;98730.88;;;11.32;100.00
26807;BME280;14380;49.910;6.792;2023-05-07T04:07:55;98729.06;;;11.18;100.00
26807;BME280;14380;49.910;6.792;2023-05-07T04:10:27;98728.31;;;11.30;100.00
26807;BME280;14380;49.910;6.792;2023-05-07T04:13:03;98734.00;;;11.08;100.00
26807;BME280;14380;49.910;6.792;2023-05-07T04:15:37;98729.13;;;11.16;100.00
26807;BME280;14380;49.910;6.792;2023-05-07T04:18:10;98734.00;;;11.08;100.00
26807;BME280;14380;49.910;6.792;2023-05-07T04:20:40;98733.22;;;11.22;100.00
26807;BME280;14380;49.910;6.792;2023-05-07T04:23:07;98729.34;;;11.28;100.00
26807;BME280;14380;49.910;6.792;2023-05-07T04:25:34;98734.06;;;11.23;100.00
26807;BME280;14380;49.910;6.792;2023-05-07T04:28:02;98722.47;;;11.25;100.00
26807;BME280;14380;49.910;6.792;2023-05-07T04:30:29;98722.81;;;10.89;100.00
26807;BME280;14380;49.910;6.792;2023-05-07T04:32:56;98721.72;;;11.07;100.00
26807;BME280;14380;49.910;6.792;2023-05-07T04:35:23;98721.03;;;11.20;100.00
26807;BME280;14380;49.910;6.792;2023-05-07T04:37:50;98725.06;;;11.11;100.00
26807;BME280;14380;49.910;6.792;2023-05-07T04:40:17;98728.94;;;11.20;100.00
26807;BME280;14380;49.910;6.792;2023-05-07T04:42:44;98725.66;;;11.30;100.00
26807;BME280;14380;49.910;6.792;2023-05-07T04:45:12;98727.94;;;11.37;100.00
26807;BME280;14380;49.910;6.792;2023-05-07T04:47:39;98723.94;;;11.45;100.00
26807;BME280;14380;49.910;6.792;2023-05-07T04:50:06;98721.56;;;11.55;100.00
26807;BME280;14380;49.910;6.792;2023-05-07T04:52:34;98725.44;;;11.64;100.00
26807;BME280;14380;49.910;6.792;2023-05-07T04:55:01;98726.97;;;11.68;100.00
26807;BME280;14380;49.910;6.792;2023-05-07T04:57:27;98729.00;;;11.49;100.00
26807;BME280;14380;49.910;6.792;2023-05-07T04:59:54;98731.22;;;11.26;100.00
26807;BME280;14380;49.910;6.792;2023-05-07T05:02:22;98725.47;;;11.34;100.00
26807;BME280;14380;49.910;6.792;2023-05-07T05:04:49;98728.91;;;11.36;100.00
26807;BME280;14380;49.910;6.792;2023-05-07T05:07:16;98728.84;;;11.66;100.00
26807;BME280;14380;49.910;6.792;2023-05-07T05:09:43;98732.03;;;12.02;100.00
26807;BME280;14380;49.910;6.792;2023-05-07T05:12:10;98736.13;;;11.77;100.00
26807;BME280;14380;49.910;6.792;2023-05-07T05:14:37;98729.75;;;12.25;100.00
26807;BME280;14380;49.910;6.792;2023-05-07T05:17:03;98728.34;;;12.33;100.00
26807;BME280;14380;49.910;6.792;2023-05-07T05:19:32;98732.56;;;12.51;100.00
26807;BME280;14380;49.910;6.792;2023-05-07T05:21:58;98732.69;;;12.62;100.00
26807;BME280;14380;49.910;6.792;2023-05-07T05:24:26;98737.66;;;12.54;100.00
26807;BME280;14380;49.910;6.792;2023-05-07T05:26:53;98742.22;;;12.23;100.00
26807;BME280;14380;49.910;6.792;2023-05-07T05:29:21;98749.41;;;12.35;100.00
26807;BME280;14380;49.910;6.792;2023-05-07T05:31:48;98742.69;;;12.71;100.00
26807;BME280;14380;49.910;6.792;2023-05-07T05:34:14;98751.16;;;13.18;100.00
26807;BME280;14380;49.910;6.792;2023-05-07T05:36:44;98749.47;;;13.58;100.00
26807;BME280;14380;49.910;6.792;2023-05-07T05:39:10;98748.94;;;13.78;100.00
26807;BME280;14380;49.910;6.792;2023-05-07T05:41:38;98745.72;;;14.25;100.00
26807;BME280;14380;49.910;6.792;2023-05-07T05:44:05;98738.56;;;13.88;100.00
26807;BME280;14380;49.910;6.792;2023-05-07T05:46:32;98745.56;;;14.02;100.00
26807;BME280;14380;49.910;6.792;2023-05-07T05:48:58;98746.97;;;14.45;100.00
26807;BME280;14380;49.910;6.792;2023-05-07T05:51:25;98740.75;;;14.20;100.00
26807;BME280;14380;49.910;6.792;2023-05-07T05:53:54;98738.69;;;14.50;100.00
26807;BME280;14380;49.910;6.792;2023-05-07T05:56:22;98744.09;;;14.85;100.00
26807;BME280;14380;49.910;6.792;2023-05-07T05:58:49;98730.72;;;14.87;100.00
26807;BME280;14380;49.910;6.792;2023-05-07T06:01:17;98731.81;;;14.96;100.00
26807;BME280;14380;49.910;6.792;2023-05-07T06:03:43;98731.75;;;14.84;100.00
26807;BME280;14380;49.910;6.792;2023-05-07T06:06:11;98728.09;;;15.23;100.00
26807;BME280;14380;49.910;6.792;2023-05-07T06:08:39;98742.06;;;15.13;100.00
26807;BME280;14380;49.910;6.792;2023-05-07T06:11:07;98732.28;;;15.50;100.00
26807;BME280;14380;49.910;6.792;2023-05-07T06:13:34;98736.22;;;15.32;100.00
26807;BME280;14380;49.910;6.792;2023-05-07T06:16:01;98731.50;;;15.83;100.00
26807;BME280;14380;49.910;6.792;2023-05-07T06:18:28;98740.06;;;15.75;100.00
26807;BME280;14380;49.910;6.792;2023-05-07T06:20:54;98746.34;;;15.74;100.00
26807;BME280;14380;49.910;6.792;2023-05-07T06:23:21;98750.72;;;15.64;100.00
26807;BME280;14380;49.910;6.792;2023-05-07T06:25:48;98754.06;;;16.25;100.00
26807;BME280;14380;49.910;6.792;2023-05-07T06:28:17;98748.69;;;16.59;100.00
26807;BME280;14380;49.910;6.792;2023-05-07T06:30:44;98751.03;;;16.18;100.00
26807;BME280;14380;49.910;6.792;2023-05-07T06:33:10;98751.78;;;16.09;100.00
26807;BME280;14380;49.910;6.792;2023-05-07T06:35:37;98752.00;;;16.05;100.00
26807;BME280;14380;49.910;6.792;2023-05-07T06:38:04;98756.22;;;16.08;100.00
26807;BME280;14380;49.910;6.792;2023-05-07T06:40:30;98759.63;;;16.44;100.00
26807;BME280;14380;49.910;6.792;2023-05-07T06:42:57;98754.38;;;16.65;100.00
26807;BME280;14380;49.910;6.792;2023-05-07T06:45:25;98762.03;;;17.14;100.00
26807;BME280;14380;49.910;6.792;2023-05-07T06:47:52;98762.03;;;17.14;100.00
26807;BME280;14380;49.910;6.792;2023-05-07T06:50:19;98764.94;;;17.44;100.00
26807;BME280;14380;49.910;6.792;2023-05-07T06:52:46;98763.78;;;17.58;100.00
26807;BME280;14380;49.910;6.792;2023-05-07T06:55:13;98768.78;;;17.30;100.00
26807;BME280;14380;49.910;6.792;2023-05-07T06:57:40;98766.66;;;17.12;100.00
26807;BME280;14380;49.910;6.792;2023-05-07T07:00:07;98764.94;;;17.44;100.00
26807;BME280;14380;49.910;6.792;2023-05-07T07:02:36;98760.66;;;17.74;100.00
26807;BME280;14380;49.910;6.792;2023-05-07T07:05:04;98759.63;;;17.65;100.00
26807;BME280;14380;49.910;6.792;2023-05-07T07:07:31;98763.72;;;17.90;100.00
26807;BME280;14380;49.910;6.792;2023-05-07T07:09:57;98761.53;;;18.26;100.00
26807;BME280;14380;49.910;6.792;2023-05-07T07:12:24;98761.63;;;17.94;100.00
26807;BME280;14380;49.910;6.792;2023-05-07T07:14:51;98765.97;;;18.16;100.00
26807;BME280;14380;49.910;6.792;2023-05-07T07:17:18;98749.16;;;18.25;100.00
26807;BME280;14380;49.910;6.792;2023-05-07T07:19:46;98748.16;;;18.26;100.00
26807;BME280;14380;49.910;6.792;2023-05-07T07:22:13;98749.78;;;18.39;100.00
26807;BME280;14380;49.910;6.792;2023-05-07T07:24:40;98750.69;;;18.59;100.00
26807;BME280;14380;49.910;6.792;2023-05-07T07:27:07;98760.22;;;18.52;98.21
26807;BME280;14380;49.910;6.792;2023-05-07T07:29:34;98758.16;;;18.65;99.62
26807;BME280;14380;49.910;6.792;2023-05-07T07:32:00;98759.81;;;18.56;100.00
26807;BME280;14380;49.910;6.792;2023-05-07T07:34:27;98752.72;;;18.86;99.58
26807;BME280;14380;49.910;6.792;2023-05-07T07:36:55;98753.97;;;18.72;100.00
26807;BME280;14380;49.910;6.792;2023-05-07T07:39:22;98761.13;;;18.82;100.00
26807;BME280;14380;49.910;6.792;2023-05-07T07:41:49;98759.22;;;18.94;96.83
26807;BME280;14380;49.910;6.792;2023-05-07T07:44:16;98760.78;;;18.96;100.00
26807;BME280;14380;49.910;6.792;2023-05-07T07:46:43;98766.13;;;18.96;96.63
26807;BME280;14380;49.910;6.792;2023-05-07T07:49:09;98757.78;;;18.90;100.00
26807;BME280;14380;49.910;6.792;2023-05-07T07:51:36;98754.34;;;19.38;100.00
26807;BME280;14380;49.910;6.792;2023-05-07T07:54:04;98755.72;;;19.23;100.00
26807;BME280;14380;49.910;6.792;2023-05-07T07:56:31;98759.97;;;19.35;97.83
26807;BME280;14380;49.910;6.792;2023-05-07T07:58:59;98758.25;;;19.14;100.00
26807;BME280;14380;49.910;6.792;2023-05-07T08:01:26;98759.69;;;19.09;100.00
26807;BME280;14380;49.910;6.792;2023-05-07T08:03:52;98760.38;;;19.11;99.72
26807;BME280;14380;49.910;6.792;2023-05-07T08:06:20;98759.50;;;19.50;100.00
26807;BME280;14380;49.910;6.792;2023-05-07T08:08:47;98768.41;;;19.60;100.00
26807;BME280;14380;49.910;6.792;2023-05-07T08:11:15;98762.50;;;19.27;99.96
26807;BME280;14380;49.910;6.792;2023-05-07T08:13:42;98761.78;;;19.54;100.00
26807;BME280;14380;49.910;6.792;2023-05-07T08:16:09;98760.66;;;19.57;99.70
26807;BME280;14380;49.910;6.792;2023-05-07T08:18:36;98757.41;;;19.63;99.70
26807;BME280;14380;49.910;6.792;2023-05-07T08:21:03;98755.69;;;19.72;100.00
26807;BME280;14380;49.910;6.792;2023-05-07T08:23:30;98754.53;;;20.04;98.92
26807;BME280;14380;49.910;6.792;2023-05-07T08:25:57;98758.53;;;19.70;96.29
26807;BME280;14380;49.910;6.792;2023-05-07T08:28:25;98756.13;;;19.67;95.34
26807;BME280;14380;49.910;6.792;2023-05-07T08:30:52;98763.63;;;19.34;93.18
26807;BME280;14380;49.910;6.792;2023-05-07T08:33:21;98763.59;;;19.73;96.90
26807;BME280;14380;49.910;6.792;2023-05-07T08:35:48;98762.16;;;19.99;97.45
26807;BME280;14380;49.910;6.792;2023-05-07T08:38:14;98765.06;;;20.15;91.98
26807;BME280;14380;49.910;6.792;2023-05-07T08:40:41;98761.03;;;20.39;90.01
26807;BME280;14380;49.910;6.792;2023-05-07T08:43:08;98768.78;;;20.42;91.20
26807;BME280;14380;49.910;6.792;2023-05-07T08:45:41;98766.34;;;20.11;88.14
26807;BME280;14380;49.910;6.792;2023-05-07T08:48:09;98759.41;;;20.18;90.29
26807;BME280;14380;49.910;6.792;2023-05-07T08:50:40;98754.03;;;20.18;88.69
26807;BME280;14380;49.910;6.792;2023-05-07T08:53:07;98761.91;;;20.30;90.46
26807;BME280;14380;49.910;6.792;2023-05-07T08:55:34;98765.44;;;20.58;88.63
26807;BME280;14380;49.910;6.792;2023-05-07T08:58:02;98758.19;;;20.41;88.21
26807;BME280;14380;49.910;6.792;2023-05-07T09:00:28;98766.03;;;20.52;86.74
26807;BME280;14380;49.910;6.792;2023-05-07T09:02:56;98765.41;;;20.96;89.12
26807;BME280;14380;49.910;6.792;2023-05-07T09:05:23;98759.19;;;21.14;86.96
26807;BME280;14380;49.910;6.792;2023-05-07T09:07:50;98761.03;;;21.67;85.80
26807;BME280;14380;49.910;6.792;2023-05-07T09:10:18;98764.56;;;21.68;82.48
26807;BME280;14380;49.910;6.792;2023-05-07T09:12:46;98767.63;;;21.55;85.31
26807;BME280;14380;49.910;6.792;2023-05-07T09:15:13;98755.22;;;22.33;83.89
26807;BME280;14380;49.910;6.792;2023-05-07T09:17:39;98753.50;;;22.58;83.54
26807;BME280;14380;49.910;6.792;2023-05-07T09:20:09;98758.22;;;22.56;81.82
26807;BME280;14380;49.910;6.792;2023-05-07T09:22:36;98749.84;;;22.68;79.25
26807;BME280;14380;49.910;6.792;2023-05-07T09:25:04;98756.47;;;22.90;81.04
26807;BME280;14380;49.910;6.792;2023-05-07T09:27:31;98751.56;;;22.85;74.00
26807;BME280;14380;49.910;6.792;2023-05-07T09:29:58;98750.50;;;23.29;79.83
26807;BME280;14380;49.910;6.792;2023-05-07T09:32:24;98751.50;;;23.61;81.83
26807;BME280;14380;49.910;6.792;2023-05-07T09:34:52;98749.31;;;23.49;80.43
26807;BME280;14380;49.910;6.792;2023-05-07T09:37:21;98749.41;;;22.97;78.21
26807;BME280;14380;49.910;6.792;2023-05-07T09:39:49;98747.25;;;23.09;79.92
26807;BME280;14380;49.910;6.792;2023-05-07T09:42:22;98744.91;;;23.14;76.48
26807;BME280;14380;49.910;6.792;2023-05-07T09:44:50;98742.91;;;23.66;76.04
26807;BME280;14380;49.910;6.792;2023-05-07T09:47:19;98745.59;;;23.66;76.06
26807;BME280;14380;49.910;6.792;2023-05-07T09:49:47;98737.22;;;24.34;79.80
26807;BME280;14380;49.910;6.792;2023-05-07T09:52:15;98740.25;;;24.31;75.35
26807;BME280;14380;49.910;6.792;2023-05-07T09:54:45;98739.91;;;23.61;72.49
26807;BME280;14380;49.910;6.792;2023-05-07T09:57:13;98740.56;;;23.55;70.29
26807;BME280;14380;49.910;6.792;2023-05-07T09:59:42;98747.09;;;23.85;72.08
26807;BME280;14380;49.910;6.792;2023-05-07T10:02:09;98751.31;;;23.88;74.46
26807;BME280;14380;49.910;6.792;2023-05-07T10:04:36;98743.25;;;24.44;73.24
26807;BME280;14380;49.910;6.792;2023-05-07T10:07:04;98746.66;;;24.30;71.57
26807;BME280;14380;49.910;6.792;2023-05-07T10:09:32;98750.97;;;23.91;71.09
26807;BME280;14380;49.910;6.792;2023-05-07T10:12:02;98751.59;;;24.26;68.02
26807;BME280;14380;49.910;6.792;2023-05-07T10:14:28;98745.97;;;24.36;65.87
26807;BME280;14380;49.910;6.792;2023-05-07T10:16:56;98744.03;;;23.88;66.12
26807;BME280;14380;49.910;6.792;2023-05-07T10:19:24;98744.75;;;23.99;69.84
26807;BME280;14380;49.910;6.792;2023-05-07T10:21:54;98747.94;;;23.86;69.50
26807;BME280;14380;49.910;6.792;2023-05-07T10:24:25;98743.53;;;24.58;68.90
26807;BME280;14380;49.910;6.792;2023-05-07T10:26:53;98745.72;;;23.89;68.16
26807;BME280;14380;49.910;6.792;2023-05-07T10:29:31;98751.84;;;23.75;69.07
26807;BME280;14380;49.910;6.792;2023-05-07T10:32:10;98750.31;;;23.89;70.15
26807;BME280;14380;49.910;6.792;2023-05-07T10:34:43;98753.28;;;24.27;69.91
26807;BME280;14380;49.910;6.792;2023-05-07T10:37:11;98750.63;;;23.94;69.44
26807;BME280;14380;49.910;6.792;2023-05-07T10:39:38;98750.34;;;24.37;69.71
26807;BME280;14380;49.910;6.792;2023-05-07T10:42:09;98752.44;;;24.67;69.88
26807;BME280;14380;49.910;6.792;2023-05-07T10:44:38;98753.16;;;24.12;69.86
26807;BME280;14380;49.910;6.792;2023-05-07T10:47:06;98754.16;;;24.11;68.30
26807;BME280;14380;49.910;6.792;2023-05-07T10:49:35;98751.41;;;24.68;69.24
26807;BME280;14380;49.910;6.792;2023-05-07T10:52:13;98751.19;;;24.86;68.25
26807;BME280;14380;49.910;6.792;2023-05-07T10:54:43;98745.63;;;24.87;66.74
26807;BME280;14380;49.910;6.792;2023-05-07T10:57:33;98732.06;;;24.56;65.66
26807;BME280;14380;49.910;6.792;2023-05-07T11:00:02;98724.22;;;23.65;68.62
26807;BME280;14380;49.910;6.792;2023-05-07T11:05:31;98725.75;;;23.59;70.55
26807;BME280;14380;49.910;6.792;2023-05-07T11:07:59;98719.34;;;24.33;68.92
26807;BME280;14380;49.910;6.792;2023-05-07T11:10:47;98726.72;;;24.47;68.85
26807;BME280;14380;49.910;6.792;2023-05-07T11:13:15;98723.88;;;24.41;66.05
26807;BME280;14380;49.910;6.792;2023-05-07T11:15:45;98719.69;;;25.01;70.88
26807;BME280;14380;49.910;6.792;2023-05-07T11:18:13;98716.75;;;25.11;66.59
26807;BME280;14380;49.910;6.792;2023-05-07T11:20:57;98721.13;;;25.35;64.59
26807;BME280;14380;49.910;6.792;2023-05-07T11:23:56;98724.69;;;25.13;64.73
26807;BME280;14380;49.910;6.792;2023-05-07T11:26:24;98724.53;;;25.06;67.33
26807;BME280;14380;49.910;6.792;2023-05-07T11:28:52;98727.97;;;25.46;64.69
26807;BME280;14380;49.910;6.792;2023-05-07T11:31:24;98724.78;;;25.81;65.14
26807;BME280;14380;49.910;6.792;2023-05-07T11:33:52;98719.75;;;25.39;64.30
26807;BME280;14380;49.910;6.792;2023-05-07T11:36:21;98723.19;;;24.47;66.44
26807;BME280;14380;49.910;6.792;2023-05-07T11:38:48;98724.75;;;24.64;65.32
26807;BME280;14380;49.910;6.792;2023-05-07T11:41:16;98720.88;;;24.99;63.08
26807;BME280;14380;49.910;6.792;2023-05-07T11:44:00;98712.59;;;24.29;62.30
26807;BME280;14380;49.910;6.792;2023-05-07T11:46:29;98720.59;;;24.14;66.68
26807;BME280;14380;49.910;6.792;2023-05-07T11:48:56;98719.47;;;24.48;65.34
26807;BME280;14380;49.910;6.792;2023-05-07T11:51:24;98711.88;;;24.83;65.41
26807;BME280;14380;49.910;6.792;2023-05-07T11:53:56;98713.47;;;25.62;63.95
26807;BME280;14380;49.910;6.792;2023-05-07T11:56:23;98716.69;;;24.96;60.10
26807;BME280;14380;49.910;6.792;2023-05-07T11:58:49;98713.75;;;25.06;61.90
26807;BME280;14380;49.910;6.792;2023-05-07T12:01:17;98715.13;;;25.02;63.03
26807;BME280;14380;49.910;6.792;2023-05-07T12:03:46;98717.94;;;25.32;63.16
26807;BME280;14380;49.910;6.792;2023-05-07T12:06:15;98712.28;;;25.42;63.02
26807;BME280;14380;49.910;6.792;2023-05-07T12:08:42;98709.22;;;25.83;63.13
26807;BME280;14380;49.910;6.792;2023-05-07T12:11:14;98714.22;;;25.56;62.24
26807;BME280;14380;49.910;6.792;2023-05-07T12:13:43;98712.94;;;25.82;62.70
26807;BME280;14380;49.910;6.792;2023-05-07T12:16:10;98716.44;;;25.52;62.00
26807;BME280;14380;49.910;6.792;2023-05-07T12:18:37;98714.13;;;25.41;59.31
26807;BME280;14380;49.910;6.792;2023-05-07T12:21:06;98715.72;;;25.74;62.81
26807;BME280;14380;49.910;6.792;2023-05-07T12:23:35;98706.56;;;25.60;61.84
26807;BME280;14380;49.910;6.792;2023-05-07T12:26:03;98717.47;;;25.28;60.76
26807;BME280;14380;49.910;6.792;2023-05-07T12:28:30;98719.69;;;25.48;61.21
26807;BME280;14380;49.910;6.792;2023-05-07T12:30:57;98713.75;;;24.43;61.58
26807;BME280;14380;49.910;6.792;2023-05-07T12:33:25;98718.84;;;25.24;62.51
26807;BME280;14380;49.910;6.792;2023-05-07T12:35:54;98726.34;;;25.37;61.37
26807;BME280;14380;49.910;6.792;2023-05-07T12:38:23;98713.53;;;25.16;59.79
26807;BME280;14380;49.910;6.792;2023-05-07T12:40:54;98721.44;;;25.17;60.07
26807;BME280;14380;49.910;6.792;2023-05-07T12:43:24;98714.09;;;25.03;60.83
26807;BME280;14380;49.910;6.792;2023-05-07T12:45:54;98724.97;;;24.63;58.99
26807;BME280;14380;49.910;6.792;2023-05-07T12:48:22;98715.34;;;24.92;59.50
26807;BME280;14380;49.910;6.792;2023-05-07T12:50:53;98712.06;;;25.05;58.70
26807;BME280;14380;49.910;6.792;2023-05-07T12:53:23;98712.91;;;25.05;57.37
26807;BME280;14380;49.910;6.792;2023-05-07T12:55:51;98714.88;;;25.58;58.89
26807;BME280;14380;49.910;6.792;2023-05-07T12:58:19;98714.28;;;25.48;60.82
26807;BME280;14380;49.910;6.792;2023-05-07T13:00:48;98719.19;;;25.21;59.02
26807;BME280;14380;49.910;6.792;2023-05-07T13:03:21;98712.41;;;25.02;61.42
26807;BME280;14380;49.910;6.792;2023-05-07T13:05:49;98717.22;;;25.38;60.80